Updated24/01/2020 08:25 
 

GeoURL
free counters
Scottish Weather Network UK Weather Network Cumulus Top Weather Sites

Peebles Weather - UV Forecast

Raw Data, Raw Data Expanded

Ignore low humidity and Dew Point values. Something wrong with the sensor.
Daytime temperatures are in direct sunlight so may be higher than official air temperature values.
As with any other website, we log your IP address and browser type in the server logs for diagnostic reasons. Cookies are used to record visit time and gauges preferences. No personal information is stored or processed.

All times are in local time (GMT, or BST in summer) unless specified.

2020/01/24 07:50 EGPH 240750Z 24008KT 9999 BKN010 08/07 Q1019
7.6°C 0.0 mm 0.0 mm 0.0 mm 2.9 mph 4.5 mph 1014.8 hPa 31% X-Ray Solar Flare Level
Planetary K-Index
Planetary K-Index History
Station Warn Rain Snow Flood Wind Ltng Heat Cold Glob Moon Temp Rain 1h Rain Fri Rain 24h Wind 10m Gust Pressure Hum Proton Levels

0.492 m New moon Cold F1-WNW F: A: Kp:0 SSN:0

UV Index Forecast

 

Fri Sat Sun Mon Tue Wed
UV Index UV Index UV Index UV Index UV Index UV Index
0.5 0.5 0.4 0.4 0.4 0.4
 Low   Low  None None None None

UV forecast courtesy of and Copyright © KNMI/ESA (http://www.temis.nl/). Used with permission.

UV Index Legend
UV Index Scale

 

XHTML 1.1 | CSS